sensor_id;sensor_type;location;lat;lon;timestamp;pressure;altitude;pressure_sealevel;temperature;humidity
28628;BME280;15815;46.760;19.604;2022-11-25T00:00:52;100332.06;;;2.37;100.00
28628;BME280;15815;46.760;19.604;2022-11-25T00:03:17;100320.06;;;2.33;100.00
28628;BME280;15815;46.760;19.604;2022-11-25T00:05:42;100322.38;;;2.31;100.00
28628;BME280;15815;46.760;19.604;2022-11-25T00:08:08;100332.97;;;2.41;100.00
28628;BME280;15815;46.760;19.604;2022-11-25T00:10:33;100325.84;;;2.28;100.00
28628;BME280;15815;46.760;19.604;2022-11-25T00:12:58;100332.31;;;2.32;100.00
28628;BME280;15815;46.760;19.604;2022-11-25T00:15:24;100308.50;;;2.18;100.00
28628;BME280;15815;46.760;19.604;2022-11-25T00:17:50;100338.31;;;2.34;100.00
28628;BME280;15815;46.760;19.604;2022-11-25T00:20:15;100340.72;;;2.35;100.00
28628;BME280;15815;46.760;19.604;2022-11-25T00:22:42;100327.81;;;2.27;100.00
28628;BME280;15815;46.760;19.604;2022-11-25T00:25:08;100316.50;;;2.20;100.00
28628;BME280;15815;46.760;19.604;2022-11-25T00:27:33;100318.69;;;2.14;100.00
28628;BME280;15815;46.760;19.604;2022-11-25T00:29:59;100335.56;;;2.22;100.00
28628;BME280;15815;46.760;19.604;2022-11-25T00:32:24;100329.56;;;2.20;100.00
28628;BME280;15815;46.760;19.604;2022-11-25T00:34:49;100333.69;;;2.26;100.00
28628;BME280;15815;46.760;19.604;2022-11-25T00:37:15;100347.56;;;2.26;100.00
28628;BME280;15815;46.760;19.604;2022-11-25T00:39:40;100350.00;;;2.27;100.00
28628;BME280;15815;46.760;19.604;2022-11-25T00:42:05;100351.50;;;2.25;100.00
28628;BME280;15815;46.760;19.604;2022-11-25T00:44:49;100359.47;;;2.26;100.00
28628;BME280;15815;46.760;19.604;2022-11-25T00:47:17;100373.69;;;2.25;100.00
28628;BME280;15815;46.760;19.604;2022-11-25T00:49:45;100375.31;;;2.26;100.00
28628;BME280;15815;46.760;19.604;2022-11-25T00:52:16;100377.97;;;2.22;100.00
28628;BME280;15815;46.760;19.604;2022-11-25T00:54:42;100381.56;;;2.23;100.00
28628;BME280;15815;46.760;19.604;2022-11-25T00:57:09;100381.75;;;2.17;100.00
28628;BME280;15815;46.760;19.604;2022-11-25T00:59:35;100372.41;;;2.10;100.00
28628;BME280;15815;46.760;19.604;2022-11-25T01:02:00;100385.13;;;2.11;100.00
28628;BME280;15815;46.760;19.604;2022-11-25T01:04:26;100386.38;;;2.13;100.00
28628;BME280;15815;46.760;19.604;2022-11-25T01:06:51;100391.13;;;2.13;100.00
28628;BME280;15815;46.760;19.604;2022-11-25T01:09:18;100381.88;;;2.09;100.00
28628;BME280;15815;46.760;19.604;2022-11-25T01:11:43;100369.75;;;2.01;100.00
28628;BME280;15815;46.760;19.604;2022-11-25T01:14:09;100379.22;;;2.00;100.00
28628;BME280;15815;46.760;19.604;2022-11-25T01:16:34;100392.97;;;2.09;100.00
28628;BME280;15815;46.760;19.604;2022-11-25T01:19:00;100393.56;;;2.02;100.00
28628;BME280;15815;46.760;19.604;2022-11-25T01:21:30;100394.69;;;2.01;100.00
28628;BME280;15815;46.760;19.604;2022-11-25T01:24:00;100396.31;;;2.02;100.00
28628;BME280;15815;46.760;19.604;2022-11-25T01:26:31;100392.63;;;1.98;100.00
28628;BME280;15815;46.760;19.604;2022-11-25T01:29:00;100398.97;;;1.99;100.00
28628;BME280;15815;46.760;19.604;2022-11-25T01:31:30;100394.81;;;1.93;100.00
28628;BME280;15815;46.760;19.604;2022-11-25T01:34:02;100383.81;;;1.84;100.00
28628;BME280;15815;46.760;19.604;2022-11-25T01:36:28;100394.66;;;1.89;100.00
28628;BME280;15815;46.760;19.604;2022-11-25T01:38:55;100379.66;;;1.78;100.00
28628;BME280;15815;46.760;19.604;2022-11-25T01:41:23;100380.47;;;1.78;100.00
28628;BME280;15815;46.760;19.604;2022-11-25T01:44:03;100385.78;;;1.83;100.00
28628;BME280;15815;46.760;19.604;2022-11-25T01:46:52;100394.22;;;1.87;100.00
28628;BME280;15815;46.760;19.604;2022-11-25T01:49:51;100392.59;;;1.86;100.00
28628;BME280;15815;46.760;19.604;2022-11-25T01:52:25;100390.97;;;1.85;100.00
28628;BME280;15815;46.760;19.604;2022-11-25T01:54:55;100388.91;;;1.82;100.00
28628;BME280;15815;46.760;19.604;2022-11-25T01:57:30;100395.38;;;1.86;100.00
28628;BME280;15815;46.760;19.604;2022-11-25T01:59:59;100398.13;;;1.86;100.00
28628;BME280;15815;46.760;19.604;2022-11-25T02:02:28;100390.63;;;1.86;100.00
28628;BME280;15815;46.760;19.604;2022-11-25T02:04:54;100396.97;;;1.87;100.00
28628;BME280;15815;46.760;19.604;2022-11-25T02:07:31;100386.94;;;1.82;100.00
28628;BME280;15815;46.760;19.604;2022-11-25T02:10:01;100380.00;;;1.76;100.00
28628;BME280;15815;46.760;19.604;2022-11-25T02:12:27;100394.91;;;1.84;100.00
28628;BME280;15815;46.760;19.604;2022-11-25T02:14:54;100388.66;;;1.75;100.00
28628;BME280;15815;46.760;19.604;2022-11-25T02:17:24;100402.75;;;1.82;100.00
28628;BME280;15815;46.760;19.604;2022-11-25T02:22:32;100396.38;;;1.69;100.00
28628;BME280;15815;46.760;19.604;2022-11-25T02:25:28;100406.91;;;1.76;100.00
28628;BME280;15815;46.760;19.604;2022-11-25T02:30:27;100400.31;;;1.68;100.00
28628;BME280;15815;46.760;19.604;2022-11-25T02:32:52;100402.13;;;1.64;100.00
28628;BME280;15815;46.760;19.604;2022-11-25T02:35:27;100410.59;;;1.68;100.00
28628;BME280;15815;46.760;19.604;2022-11-25T02:37:56;100396.00;;;1.59;100.00
28628;BME280;15815;46.760;19.604;2022-11-25T02:40:23;100377.81;;;1.37;100.00
28628;BME280;15815;46.760;19.604;2022-11-25T02:42:50;100424.50;;;1.59;100.00
28628;BME280;15815;46.760;19.604;2022-11-25T02:45:20;100424.44;;;1.68;100.00
28628;BME280;15815;46.760;19.604;2022-11-25T02:47:49;100427.91;;;1.65;100.00
28628;BME280;15815;46.760;19.604;2022-11-25T02:50:14;100424.50;;;1.59;100.00
28628;BME280;15815;46.760;19.604;2022-11-25T02:52:39;100429.25;;;1.59;100.00
28628;BME280;15815;46.760;19.604;2022-11-25T02:55:05;100426.94;;;1.61;100.00
28628;BME280;15815;46.760;19.604;2022-11-25T02:57:31;100433.16;;;1.58;100.00
28628;BME280;15815;46.760;19.604;2022-11-25T02:59:56;100430.16;;;1.63;100.00
28628;BME280;15815;46.760;19.604;2022-11-25T03:02:21;100433.16;;;1.58;100.00
28628;BME280;15815;46.760;19.604;2022-11-25T03:04:47;100435.47;;;1.55;100.00
28628;BME280;15815;46.760;19.604;2022-11-25T03:07:12;100424.81;;;1.45;100.00
28628;BME280;15815;46.760;19.604;2022-11-25T03:09:37;100420.78;;;1.43;100.00
28628;BME280;15815;46.760;19.604;2022-11-25T03:12:03;100442.59;;;1.44;100.00
28628;BME280;15815;46.760;19.604;2022-11-25T03:14:43;100441.19;;;1.38;100.00
28628;BME280;15815;46.760;19.604;2022-11-25T03:17:08;100451.13;;;1.39;100.00
28628;BME280;15815;46.760;19.604;2022-11-25T03:19:34;100449.00;;;1.36;100.00
28628;BME280;15815;46.760;19.604;2022-11-25T03:21:59;100461.44;;;1.30;100.00
28628;BME280;15815;46.760;19.604;2022-11-25T03:24:24;100433.44;;;1.11;100.00
28628;BME280;15815;46.760;19.604;2022-11-25T03:26:50;100445.00;;;1.13;100.00
28628;BME280;15815;46.760;19.604;2022-11-25T03:29:15;100459.56;;;1.22;100.00
28628;BME280;15815;46.760;19.604;2022-11-25T03:31:40;100469.03;;;1.21;100.00
28628;BME280;15815;46.760;19.604;2022-11-25T03:34:06;100465.78;;;1.19;100.00
28628;BME280;15815;46.760;19.604;2022-11-25T03:36:31;100467.41;;;1.20;100.00
28628;BME280;15815;46.760;19.604;2022-11-25T03:38:56;100461.88;;;1.20;100.00
28628;BME280;15815;46.760;19.604;2022-11-25T03:41:22;100459.56;;;1.22;100.00
28628;BME280;15815;46.760;19.604;2022-11-25T03:43:47;100466.59;;;1.19;100.00
28628;BME280;15815;46.760;19.604;2022-11-25T03:46:13;100469.97;;;1.25;100.00
28628;BME280;15815;46.760;19.604;2022-11-25T03:48:39;100479.06;;;1.26;100.00
28628;BME280;15815;46.760;19.604;2022-11-25T03:51:05;100477.94;;;1.27;100.00
28628;BME280;15815;46.760;19.604;2022-11-25T03:53:30;100471.44;;;1.22;100.00
28628;BME280;15815;46.760;19.604;2022-11-25T03:55:55;100484.75;;;1.29;100.00
28628;BME280;15815;46.760;19.604;2022-11-25T03:58:21;100469.84;;;1.21;100.00
28628;BME280;15815;46.760;19.604;2022-11-25T04:00:46;100462.41;;;1.13;100.00
28628;BME280;15815;46.760;19.604;2022-11-25T04:03:11;100481.72;;;1.22;100.00
28628;BME280;15815;46.760;19.604;2022-11-25T04:05:36;100481.25;;;1.20;100.00
28628;BME280;15815;46.760;19.604;2022-11-25T04:08:02;100482.72;;;1.17;100.00
28628;BME280;15815;46.760;19.604;2022-11-25T04:10:27;100485.03;;;1.15;100.00
28628;BME280;15815;46.760;19.604;2022-11-25T04:12:53;100486.66;;;1.16;100.00
28628;BME280;15815;46.760;19.604;2022-11-25T04:15:18;100476.28;;;1.05;100.00
28628;BME280;15815;46.760;19.604;2022-11-25T04:17:44;100478.78;;;0.98;100.00
28628;BME280;15815;46.760;19.604;2022-11-25T04:20:11;100483.66;;;1.01;100.00
28628;BME280;15815;46.760;19.604;2022-11-25T04:22:36;100498.44;;;1.05;100.00
28628;BME280;15815;46.760;19.604;2022-11-25T04:25:02;100479.69;;;0.89;100.00
28628;BME280;15815;46.760;19.604;2022-11-25T04:27:28;100488.91;;;0.93;100.00
28628;BME280;15815;46.760;19.604;2022-11-25T04:29:53;100493.19;;;0.91;100.00
28628;BME280;15815;46.760;19.604;2022-11-25T04:32:19;100490.28;;;0.87;100.00
28628;BME280;15815;46.760;19.604;2022-11-25T04:34:44;100498.38;;;0.92;100.00
28628;BME280;15815;46.760;19.604;2022-11-25T04:37:10;100493.50;;;0.89;100.00
28628;BME280;15815;46.760;19.604;2022-11-25T04:39:35;100497.75;;;0.87;100.00
28628;BME280;15815;46.760;19.604;2022-11-25T04:42:00;100506.88;;;0.87;100.00
28628;BME280;15815;46.760;19.604;2022-11-25T04:44:44;100506.56;;;0.80;100.00
28628;BME280;15815;46.760;19.604;2022-11-25T04:47:09;100495.50;;;0.80;100.00
28628;BME280;15815;46.760;19.604;2022-11-25T04:49:35;100495.16;;;0.82;100.00
28628;BME280;15815;46.760;19.604;2022-11-25T04:52:00;100512.22;;;0.92;100.00
28628;BME280;15815;46.760;19.604;2022-11-25T04:54:28;100508.84;;;0.87;100.00
28628;BME280;15815;46.760;19.604;2022-11-25T04:56:55;100513.72;;;0.81;100.00
28628;BME280;15815;46.760;19.604;2022-11-25T04:59:20;100519.75;;;0.83;100.00
28628;BME280;15815;46.760;19.604;2022-11-25T05:02:24;100537.00;;;0.80;100.00
28628;BME280;15815;46.760;19.604;2022-11-25T05:04:51;100521.59;;;0.71;100.00
28628;BME280;15815;46.760;19.604;2022-11-25T05:07:18;100543.69;;;0.79;100.00
28628;BME280;15815;46.760;19.604;2022-11-25T05:09:44;100553.47;;;0.77;100.00
28628;BME280;15815;46.760;19.604;2022-11-25T05:12:15;100558.50;;;0.83;100.00
28628;BME280;15815;46.760;19.604;2022-11-25T05:14:41;100537.53;;;0.74;100.00
28628;BME280;15815;46.760;19.604;2022-11-25T05:17:15;100554.28;;;0.77;100.00
28628;BME280;15815;46.760;19.604;2022-11-25T05:19:40;100569.56;;;0.83;100.00
28628;BME280;15815;46.760;19.604;2022-11-25T05:22:10;100565.34;;;0.77;100.00
28628;BME280;15815;46.760;19.604;2022-11-25T05:24:35;100578.84;;;0.79;100.00
28628;BME280;15815;46.760;19.604;2022-11-25T05:27:00;100592.19;;;0.77;100.00
28628;BME280;15815;46.760;19.604;2022-11-25T05:29:26;100574.34;;;0.66;100.00
28628;BME280;15815;46.760;19.604;2022-11-25T05:31:51;100582.19;;;0.64;100.00
28628;BME280;15815;46.760;19.604;2022-11-25T05:34:16;100586.56;;;0.65;100.00
28628;BME280;15815;46.760;19.604;2022-11-25T05:36:42;100589.84;;;0.58;100.00
28628;BME280;15815;46.760;19.604;2022-11-25T05:39:07;100556.56;;;0.37;100.00
28628;BME280;15815;46.760;19.604;2022-11-25T05:41:33;100592.16;;;0.56;100.00
28628;BME280;15815;46.760;19.604;2022-11-25T05:43:59;100588.88;;;0.54;100.00
28628;BME280;15815;46.760;19.604;2022-11-25T05:46:24;100592.94;;;0.56;100.00
28628;BME280;15815;46.760;19.604;2022-11-25T05:48:54;100602.53;;;0.59;100.00
28628;BME280;15815;46.760;19.604;2022-11-25T05:51:19;100586.28;;;0.49;100.00
28628;BME280;15815;46.760;19.604;2022-11-25T05:53:45;100583.22;;;0.42;100.00
28628;BME280;15815;46.760;19.604;2022-11-25T05:56:10;100617.53;;;0.58;100.00
28628;BME280;15815;46.760;19.604;2022-11-25T05:58:35;100609.06;;;0.46;100.00
28628;BME280;15815;46.760;19.604;2022-11-25T06:01:05;100629.53;;;0.62;100.00
28628;BME280;15815;46.760;19.604;2022-11-25T06:03:31;100635.22;;;0.66;100.00
28628;BME280;15815;46.760;19.604;2022-11-25T06:05:58;100645.44;;;0.74;100.00
28628;BME280;15815;46.760;19.604;2022-11-25T06:08:24;100646.59;;;0.73;100.00
28628;BME280;15815;46.760;19.604;2022-11-25T06:10:50;100617.03;;;0.56;100.00
28628;BME280;15815;46.760;19.604;2022-11-25T06:13:15;100632.78;;;0.64;100.00
28628;BME280;15815;46.760;19.604;2022-11-25T06:15:42;100649.16;;;0.78;100.00
28628;BME280;15815;46.760;19.604;2022-11-25T06:18:09;100658.28;;;0.78;100.00
28628;BME280;15815;46.760;19.604;2022-11-25T06:20:35;100668.19;;;0.79;100.00
28628;BME280;15815;46.760;19.604;2022-11-25T06:23:00;100674.06;;;0.78;100.00
28628;BME280;15815;46.760;19.604;2022-11-25T06:25:26;100681.22;;;0.87;100.00
28628;BME280;15815;46.760;19.604;2022-11-25T06:27:51;100665.06;;;0.98;100.00
28628;BME280;15815;46.760;19.604;2022-11-25T06:30:17;100674.19;;;1.28;100.00
28628;BME280;15815;46.760;19.604;2022-11-25T06:32:43;100676.69;;;1.21;100.00
28628;BME280;15815;46.760;19.604;2022-11-25T06:35:08;100676.44;;;1.35;100.00
28628;BME280;15815;46.760;19.604;2022-11-25T06:37:34;100659.69;;;1.31;100.00
28628;BME280;15815;46.760;19.604;2022-11-25T06:39:59;100692.81;;;1.78;100.00
28628;BME280;15815;46.760;19.604;2022-11-25T06:42:25;100687.63;;;2.18;100.00
28628;BME280;15815;46.760;19.604;2022-11-25T06:44:50;100682.63;;;2.65;100.00
28628;BME280;15815;46.760;19.604;2022-11-25T06:47:16;100662.84;;;2.67;100.00
28628;BME280;15815;46.760;19.604;2022-11-25T06:49:41;100692.16;;;2.89;100.00
28628;BME280;15815;46.760;19.604;2022-11-25T06:52:06;100686.66;;;3.13;100.00
28628;BME280;15815;46.760;19.604;2022-11-25T06:54:32;100677.88;;;3.48;100.00
28628;BME280;15815;46.760;19.604;2022-11-25T06:56:58;100694.28;;;3.89;100.00
28628;BME280;15815;46.760;19.604;2022-11-25T06:59:24;100677.69;;;4.61;100.00
28628;BME280;15815;46.760;19.604;2022-11-25T07:01:49;100697.03;;;5.29;100.00
28628;BME280;15815;46.760;19.604;2022-11-25T07:04:16;100686.34;;;5.82;100.00
28628;BME280;15815;46.760;19.604;2022-11-25T07:06:44;100690.66;;;6.30;100.00
28628;BME280;15815;46.760;19.604;2022-11-25T07:09:09;100686.22;;;6.68;100.00
28628;BME280;15815;46.760;19.604;2022-11-25T07:11:37;100703.59;;;7.23;100.00
28628;BME280;15815;46.760;19.604;2022-11-25T07:14:06;100692.34;;;6.96;99.36
28628;BME280;15815;46.760;19.604;2022-11-25T07:16:32;100711.09;;;7.91;100.00
28628;BME280;15815;46.760;19.604;2022-11-25T07:18:58;100713.19;;;8.24;99.89
28628;BME280;15815;46.760;19.604;2022-11-25T07:21:26;100681.75;;;8.67;100.00
28628;BME280;15815;46.760;19.604;2022-11-25T07:23:52;100704.78;;;9.24;96.63
28628;BME280;15815;46.760;19.604;2022-11-25T07:26:23;100708.41;;;9.73;98.85
28628;BME280;15815;46.760;19.604;2022-11-25T07:28:52;100703.16;;;10.23;98.67
28628;BME280;15815;46.760;19.604;2022-11-25T07:31:20;100712.66;;;10.80;97.19
28628;BME280;15815;46.760;19.604;2022-11-25T07:33:47;100713.53;;;10.98;96.92
28628;BME280;15815;46.760;19.604;2022-11-25T07:36:13;100722.84;;;11.38;98.50
28628;BME280;15815;46.760;19.604;2022-11-25T07:38:40;100722.84;;;11.27;94.35
28628;BME280;15815;46.760;19.604;2022-11-25T07:41:08;100719.66;;;11.96;95.38
28628;BME280;15815;46.760;19.604;2022-11-25T07:43:34;100733.19;;;12.62;95.20
28628;BME280;15815;46.760;19.604;2022-11-25T07:46:17;100724.59;;;12.87;90.27
28628;BME280;15815;46.760;19.604;2022-11-25T07:48:44;100732.09;;;13.25;94.75
28628;BME280;15815;46.760;19.604;2022-11-25T07:51:21;100726.13;;;13.68;87.96
28628;BME280;15815;46.760;19.604;2022-11-25T07:53:48;100738.00;;;13.97;92.13
28628;BME280;15815;46.760;19.604;2022-11-25T07:56:15;100747.50;;;14.17;84.06
28628;BME280;15815;46.760;19.604;2022-11-25T07:58:41;100732.47;;;14.24;93.18
28628;BME280;15815;46.760;19.604;2022-11-25T08:01:08;100734.78;;;14.36;87.26
28628;BME280;15815;46.760;19.604;2022-11-25T08:03:35;100749.28;;;14.79;87.84
28628;BME280;15815;46.760;19.604;2022-11-25T08:06:07;100744.22;;;14.94;86.29
28628;BME280;15815;46.760;19.604;2022-11-25T08:08:33;100746.50;;;15.33;88.90
28628;BME280;15815;46.760;19.604;2022-11-25T08:10:59;100739.66;;;15.31;84.86
28628;BME280;15815;46.760;19.604;2022-11-25T08:13:24;100748.91;;;15.65;83.26
28628;BME280;15815;46.760;19.604;2022-11-25T08:15:50;100757.69;;;15.44;75.16
28628;BME280;15815;46.760;19.604;2022-11-25T08:18:15;100764.59;;;15.97;82.50
28628;BME280;15815;46.760;19.604;2022-11-25T08:20:41;100755.09;;;16.07;80.82
28628;BME280;15815;46.760;19.604;2022-11-25T08:23:06;100758.88;;;16.44;79.60
28628;BME280;15815;46.760;19.604;2022-11-25T08:25:32;100754.41;;;16.86;78.62
28628;BME280;15815;46.760;19.604;2022-11-25T08:27:58;100757.78;;;17.01;70.95
28628;BME280;15815;46.760;19.604;2022-11-25T08:30:24;100757.78;;;17.37;73.59
28628;BME280;15815;46.760;19.604;2022-11-25T08:32:51;100760.09;;;17.94;72.32
28628;BME280;15815;46.760;19.604;2022-11-25T08:35:18;100764.78;;;18.17;69.66
28628;BME280;15815;46.760;19.604;2022-11-25T08:37:44;100769.59;;;18.20;70.77
28628;BME280;15815;46.760;19.604;2022-11-25T08:40:09;100768.81;;;17.51;62.84
28628;BME280;15815;46.760;19.604;2022-11-25T08:42:36;100767.91;;;17.74;66.68
28628;BME280;15815;46.760;19.604;2022-11-25T08:45:02;100766.75;;;17.87;60.00
28628;BME280;15815;46.760;19.604;2022-11-25T08:47:28;100764.97;;;18.10;63.42
28628;BME280;15815;46.760;19.604;2022-11-25T08:49:53;100768.91;;;16.91;62.25
28628;BME280;15815;46.760;19.604;2022-11-25T08:52:20;100792.25;;;18.40;65.99
28628;BME280;15815;46.760;19.604;2022-11-25T08:54:46;100783.81;;;17.51;57.75
28628;BME280;15815;46.760;19.604;2022-11-25T08:57:11;100786.16;;;17.56;62.39
28628;BME280;15815;46.760;19.604;2022-11-25T08:59:37;100785.16;;;17.99;64.37
28628;BME280;15815;46.760;19.604;2022-11-25T09:02:03;100776.72;;;18.57;57.15
28628;BME280;15815;46.760;19.604;2022-11-25T09:04:29;100771.44;;;18.43;53.67
28628;BME280;15815;46.760;19.604;2022-11-25T09:06:54;100764.25;;;18.96;55.81
28628;BME280;15815;46.760;19.604;2022-11-25T09:09:22;100757.47;;;18.77;50.87
28628;BME280;15815;46.760;19.604;2022-11-25T09:11:47;100773.63;;;18.51;48.61
28628;BME280;15815;46.760;19.604;2022-11-25T09:14:13;100769.72;;;18.45;47.94
28628;BME280;15815;46.760;19.604;2022-11-25T09:16:38;100761.56;;;18.60;48.55
28628;BME280;15815;46.760;19.604;2022-11-25T09:19:03;100782.31;;;18.61;47.50
28628;BME280;15815;46.760;19.604;2022-11-25T09:21:29;100785.81;;;18.68;48.48
28628;BME280;15815;46.760;19.604;2022-11-25T09:23:54;100789.44;;;18.98;47.83
28628;BME280;15815;46.760;19.604;2022-11-25T09:26:26;100792.44;;;16.72;50.12
28628;BME280;15815;46.760;19.604;2022-11-25T09:28:53;100798.75;;;16.80;55.23
28628;BME280;15815;46.760;19.604;2022-11-25T09:31:19;100796.84;;;18.50;54.85
28628;BME280;15815;46.760;19.604;2022-11-25T09:33:45;100796.69;;;19.28;51.00
28628;BME280;15815;46.760;19.604;2022-11-25T09:36:12;100796.69;;;18.41;52.87
28628;BME280;15815;46.760;19.604;2022-11-25T09:38:38;100785.44;;;18.95;49.81
28628;BME280;15815;46.760;19.604;2022-11-25T09:47:28;100796.28;;;18.55;51.43
28628;BME280;15815;46.760;19.604;2022-11-25T09:50:19;100791.16;;;18.95;48.25
28628;BME280;15815;46.760;19.604;2022-11-25T09:55:21;100782.84;;;20.06;47.33
28628;BME280;15815;46.760;19.604;2022-11-25T10:00:43;100776.19;;;20.09;44.56
28628;BME280;15815;46.760;19.604;2022-11-25T10:05:45;100769.25;;;19.97;43.90
28628;BME280;15815;46.760;19.604;2022-11-25T10:08:15;100773.03;;;19.69;46.54
28628;BME280;15815;46.760;19.604;2022-11-25T10:10:46;100773.84;;;19.82;44.37
28628;BME280;15815;46.760;19.604;2022-11-25T10:13:32;100763.22;;;19.83;42.82
28628;BME280;15815;46.760;19.604;2022-11-25T10:16:04;100772.78;;;19.51;44.51
28628;BME280;15815;46.760;19.604;2022-11-25T10:18:45;100780.72;;;19.18;40.93
28628;BME280;15815;46.760;19.604;2022-11-25T10:21:16;100769.13;;;19.50;44.72
28628;BME280;15815;46.760;19.604;2022-11-25T10:23:41;100765.97;;;19.61;44.61
28628;BME280;15815;46.760;19.604;2022-11-25T10:26:15;100769.50;;;18.98;41.64
28628;BME280;15815;46.760;19.604;2022-11-25T10:28:53;100780.94;;;18.81;41.64
28628;BME280;15815;46.760;19.604;2022-11-25T10:31:34;100778.97;;;18.49;42.60
28628;BME280;15815;46.760;19.604;2022-11-25T10:34:01;100788.94;;;19.28;45.31
28628;BME280;15815;46.760;19.604;2022-11-25T10:36:37;100786.13;;;19.92;44.90
28628;BME280;15815;46.760;19.604;2022-11-25T10:41:33;100774.25;;;19.42;43.27
28628;BME280;15815;46.760;19.604;2022-11-25T10:44:02;100782.84;;;19.55;43.51
28628;BME280;15815;46.760;19.604;2022-11-25T10:49:37;100786.78;;;19.32;41.03
28628;BME280;15815;46.760;19.604;2022-11-25T10:51:59;100794.34;;;19.52;42.58
28628;BME280;15815;46.760;19.604;2022-11-25T10:54:27;100793.34;;;19.71;43.17
28628;BME280;15815;46.760;19.604;2022-11-25T10:57:01;100789.41;;;19.39;42.93
28628;BME280;15815;46.760;19.604;2022-11-25T10:59:35;100785.94;;;18.00;43.59
28628;BME280;15815;46.760;19.604;2022-11-25T11:02:29;100786.94;;;17.93;47.00
28628;BME280;15815;46.760;19.604;2022-11-25T11:07:40;100789.50;;;19.23;43.21
28628;BME280;15815;46.760;19.604;2022-11-25T11:13:04;100798.53;;;19.34;43.90
28628;BME280;15815;46.760;19.604;2022-11-25T11:18:25;100796.81;;;19.24;42.84
28628;BME280;15815;46.760;19.604;2022-11-25T11:20:54;100809.06;;;19.63;46.12
28628;BME280;15815;46.760;19.604;2022-11-25T11:23:20;100800.75;;;19.94;46.78
28628;BME280;15815;46.760;19.604;2022-11-25T11:26:00;100807.59;;;19.17;44.88
28628;BME280;15815;46.760;19.604;2022-11-25T11:28:39;100818.97;;;19.45;43.02
28628;BME280;15815;46.760;19.604;2022-11-25T11:31:14;100811.81;;;18.83;43.47
28628;BME280;15815;46.760;19.604;2022-11-25T11:50:32;100810.22;;;18.20;42.30
28628;BME280;15815;46.760;19.604;2022-11-25T11:53:27;100814.28;;;18.52;42.58
28628;BME280;15815;46.760;19.604;2022-11-25T11:59:00;100811.63;;;18.29;42.59
28628;BME280;15815;46.760;19.604;2022-11-25T12:04:35;100812.09;;;17.58;46.48
28628;BME280;15815;46.760;19.604;2022-11-25T12:09:56;100813.31;;;17.21;45.29
28628;BME280;15815;46.760;19.604;2022-11-25T12:12:49;100811.94;;;17.66;42.81
28628;BME280;15815;46.760;19.604;2022-11-25T12:15:21;100805.53;;;17.61;44.07
28628;BME280;15815;46.760;19.604;2022-11-25T12:17:53;100813.22;;;17.97;44.96
28628;BME280;15815;46.760;19.604;2022-11-25T12:20:35;100805.59;;;16.59;45.11
28628;BME280;15815;46.760;19.604;2022-11-25T12:23:12;100818.78;;;16.73;49.67
28628;BME280;15815;46.760;19.604;2022-11-25T12:25:41;100804.84;;;17.38;50.68
28628;BME280;15815;46.760;19.604;2022-11-25T12:31:09;100800.09;;;15.78;48.23
28628;BME280;15815;46.760;19.604;2022-11-25T12:33:42;100799.44;;;16.41;48.67
28628;BME280;15815;46.760;19.604;2022-11-25T12:38:41;100771.47;;;15.72;46.75
28628;BME280;15815;46.760;19.604;2022-11-25T12:43:55;100771.22;;;14.68;48.42
28628;BME280;15815;46.760;19.604;2022-11-25T12:48:54;100753.19;;;14.14;49.62
28628;BME280;15815;46.760;19.604;2022-11-25T12:51:34;100781.38;;;14.21;49.61
28628;BME280;15815;46.760;19.604;2022-11-25T12:57:25;100788.25;;;14.20;50.36
28628;BME280;15815;46.760;19.604;2022-11-25T13:00:19;100789.28;;;13.96;51.23
28628;BME280;15815;46.760;19.604;2022-11-25T13:03:20;100779.47;;;13.59;51.70
28628;BME280;15815;46.760;19.604;2022-11-25T13:14:03;100786.56;;;13.08;51.99
28628;BME280;15815;46.760;19.604;2022-11-25T13:16:37;100765.72;;;12.88;52.35
28628;BME280;15815;46.760;19.604;2022-11-25T13:19:08;100783.53;;;12.67;53.28
28628;BME280;15815;46.760;19.604;2022-11-25T13:21:35;100775.84;;;12.71;53.45
28628;BME280;15815;46.760;19.604;2022-11-25T13:24:02;100773.47;;;12.59;54.15
28628;BME280;15815;46.760;19.604;2022-11-25T13:28:53;100775.94;;;12.39;54.13
28628;BME280;15815;46.760;19.604;2022-11-25T13:36:19;100786.03;;;12.15;55.14
28628;BME280;15815;46.760;19.604;2022-11-25T13:46:28;100783.66;;;11.78;56.79
28628;BME280;15815;46.760;19.604;2022-11-25T13:48:57;100777.16;;;11.67;57.70
28628;BME280;15815;46.760;19.604;2022-11-25T13:51:26;100789.63;;;11.66;57.61
28628;BME280;15815;46.760;19.604;2022-11-25T13:54:02;100800.09;;;11.65;57.51
28628;BME280;15815;46.760;19.604;2022-11-25T13:56:34;100793.66;;;11.65;58.38
28628;BME280;15815;46.760;19.604;2022-11-25T14:01:35;100782.75;;;11.38;58.15
28628;BME280;15815;46.760;19.604;2022-11-25T14:04:06;100788.78;;;11.48;58.16
28628;BME280;15815;46.760;19.604;2022-11-25T14:20:57;100805.16;;;11.03;61.01
28628;BME280;15815;46.760;19.604;2022-11-25T14:23:48;100815.13;;;10.90;60.99
28628;BME280;15815;46.760;19.604;2022-11-25T14:26:33;100813.84;;;10.69;60.06
28628;BME280;15815;46.760;19.604;2022-11-25T14:31:43;100814.94;;;10.54;62.12
28628;BME280;15815;46.760;19.604;2022-11-25T14:36:57;100813.16;;;10.25;62.24
28628;BME280;15815;46.760;19.604;2022-11-25T14:39:33;100834.84;;;10.28;61.96
28628;BME280;15815;46.760;19.604;2022-11-25T14:42:12;100820.91;;;9.94;65.69
28628;BME280;15815;46.760;19.604;2022-11-25T14:47:09;100826.25;;;9.66;66.88
28628;BME280;15815;46.760;19.604;2022-11-25T14:50:03;100832.06;;;9.46;68.77